createdAt,value
2022-07-30T00:01:58.468Z,16.31
2022-07-30T00:04:26.967Z,16.28
2022-07-30T00:06:54.266Z,16.26
2022-07-30T00:09:22.445Z,16.17
2022-07-30T00:11:50.272Z,16.14
2022-07-30T00:14:17.466Z,16.10
2022-07-30T00:16:44.924Z,16.06
2022-07-30T00:19:12.560Z,16.00
2022-07-30T00:21:39.889Z,15.93
2022-07-30T00:24:08.649Z,15.89
2022-07-30T00:26:35.995Z,15.86
2022-07-30T00:29:05.811Z,15.81
2022-07-30T00:31:33.252Z,15.84
2022-07-30T00:34:00.403Z,15.82
2022-07-30T00:36:27.618Z,15.78
2022-07-30T00:38:55.952Z,15.79
2022-07-30T00:41:23.724Z,15.78
2022-07-30T00:43:51.713Z,15.74
2022-07-30T00:46:20.052Z,15.67
2022-07-30T00:48:47.242Z,15.75
2022-07-30T00:51:14.385Z,15.78
2022-07-30T00:53:41.558Z,15.79
2022-07-30T00:56:08.879Z,15.76
2022-07-30T00:58:35.974Z,15.73
2022-07-30T01:01:04.352Z,15.72
2022-07-30T01:03:31.367Z,15.72
2022-07-30T01:05:58.461Z,15.59
2022-07-30T01:08:28.285Z,15.60
2022-07-30T01:10:59.227Z,15.58
2022-07-30T01:13:26.500Z,15.51
2022-07-30T01:15:53.940Z,15.40
2022-07-30T01:18:25.118Z,15.44
2022-07-30T01:21:09.259Z,15.39
2022-07-30T01:23:38.033Z,15.37
2022-07-30T01:26:10.826Z,15.30
2022-07-30T01:28:40.900Z,15.27
2022-07-30T01:31:09.213Z,15.31
2022-07-30T01:33:40.818Z,15.31
2022-07-30T01:36:15.648Z,15.27
2022-07-30T01:38:46.184Z,15.29
2022-07-30T01:41:15.356Z,15.26
2022-07-30T01:43:44.203Z,15.25
2022-07-30T01:46:12.651Z,15.23
2022-07-30T01:48:42.631Z,15.17
2022-07-30T01:51:12.539Z,15.14
2022-07-30T01:53:41.775Z,15.11
2022-07-30T01:56:11.954Z,15.05
2022-07-30T01:58:40.374Z,14.99
2022-07-30T02:01:07.922Z,15.00
2022-07-30T02:03:39.636Z,14.99
2022-07-30T02:06:14.938Z,15.00
2022-07-30T02:08:50.683Z,14.98
2022-07-30T02:11:37.043Z,14.99
2022-07-30T02:14:11.392Z,15.03
2022-07-30T02:16:43.018Z,14.99
2022-07-30T02:19:14.712Z,14.99
2022-07-30T02:21:50.536Z,14.99
2022-07-30T02:24:25.270Z,14.99
2022-07-30T02:27:01.405Z,14.99
2022-07-30T02:29:35.978Z,14.92
2022-07-30T02:32:09.089Z,14.98
2022-07-30T02:34:39.097Z,14.96
2022-07-30T02:37:08.525Z,14.95
2022-07-30T02:39:37.118Z,14.96
2022-07-30T02:42:07.616Z,14.93
2022-07-30T02:44:37.330Z,14.91
2022-07-30T02:47:06.685Z,14.85
2022-07-30T02:49:39.515Z,14.82
2022-07-30T02:52:13.212Z,14.81
2022-07-30T02:54:42.218Z,14.79
2022-07-30T02:57:10.910Z,14.75
2022-07-30T02:59:41.072Z,14.77
2022-07-30T03:02:10.213Z,14.74
2022-07-30T03:04:39.295Z,14.73
2022-07-30T03:07:09.212Z,14.71
2022-07-30T03:09:50.984Z,14.62
2022-07-30T03:12:21.539Z,14.62
2022-07-30T03:14:50.783Z,14.59
2022-07-30T03:17:21.358Z,14.54
2022-07-30T03:19:50.726Z,14.51
2022-07-30T03:22:22.863Z,14.47
2022-07-30T03:24:57.131Z,14.45
2022-07-30T03:27:26.858Z,14.43
2022-07-30T03:29:57.134Z,14.39
2022-07-30T03:32:26.138Z,14.31
2022-07-30T03:34:56.542Z,14.31
2022-07-30T03:37:26.526Z,14.33
2022-07-30T03:39:56.094Z,14.26
2022-07-30T03:42:23.471Z,14.31
2022-07-30T03:44:51.302Z,14.28
2022-07-30T03:47:23.964Z,14.27
2022-07-30T03:49:52.357Z,14.24
2022-07-30T03:52:21.038Z,14.23
2022-07-30T03:54:48.839Z,14.23
2022-07-30T03:57:20.177Z,14.14
2022-07-30T03:59:47.892Z,14.22
2022-07-30T04:02:14.963Z,14.23
2022-07-30T04:04:43.601Z,14.20
2022-07-30T04:07:10.908Z,14.20
2022-07-30T04:09:37.975Z,14.19
2022-07-30T04:12:06.546Z,14.18
2022-07-30T04:14:45.257Z,14.15
2022-07-30T04:17:25.298Z,14.15
2022-07-30T04:19:57.220Z,14.12
2022-07-30T04:22:30.479Z,14.12
2022-07-30T04:24:59.132Z,14.15
2022-07-30T04:27:27.255Z,14.12
2022-07-30T04:29:56.360Z,14.09
2022-07-30T04:32:23.744Z,14.04
2022-07-30T04:34:52.838Z,14.08
2022-07-30T04:37:23.750Z,14.08
2022-07-30T04:39:59.856Z,14.05
2022-07-30T04:42:28.451Z,14.10
2022-07-30T04:44:58.904Z,14.07
2022-07-30T04:47:26.808Z,14.09
2022-07-30T04:49:56.234Z,14.09
2022-07-30T04:52:25.431Z,14.10
2022-07-30T04:55:00.832Z,14.13
2022-07-30T04:57:28.582Z,14.12
2022-07-30T04:59:57.949Z,14.17
2022-07-30T05:02:28.806Z,14.20
2022-07-30T05:04:59.117Z,14.25
2022-07-30T05:07:27.780Z,14.26
2022-07-30T05:09:56.100Z,14.31
2022-07-30T05:12:38.527Z,14.34
2022-07-30T05:15:07.550Z,14.32
2022-07-30T05:17:36.668Z,14.37
2022-07-30T05:20:05.376Z,14.46
2022-07-30T05:22:32.405Z,14.51
2022-07-30T05:24:59.836Z,14.53
2022-07-30T05:27:26.907Z,14.57
2022-07-30T05:29:55.473Z,14.63
2022-07-30T05:32:25.455Z,14.68
2022-07-30T05:34:56.126Z,14.76
2022-07-30T05:37:24.092Z,14.83
2022-07-30T05:40:02.162Z,14.90
2022-07-30T05:42:30.280Z,14.93
2022-07-30T05:44:57.544Z,14.97
2022-07-30T05:47:27.390Z,15.05
2022-07-30T05:49:56.192Z,15.10
2022-07-30T05:52:23.508Z,15.14
2022-07-30T05:54:50.853Z,15.24
2022-07-30T05:57:17.873Z,15.32
2022-07-30T05:59:46.867Z,15.37
2022-07-30T06:02:13.975Z,15.40
2022-07-30T06:04:46.013Z,15.48
2022-07-30T06:07:13.553Z,15.54
2022-07-30T06:09:40.703Z,15.58
2022-07-30T06:12:07.991Z,15.73
2022-07-30T06:14:38.648Z,15.75
2022-07-30T06:17:06.164Z,15.76
2022-07-30T06:19:35.874Z,15.85
2022-07-30T06:22:06.910Z,15.96
2022-07-30T06:24:37.798Z,16.02
2022-07-30T06:27:05.982Z,16.21
2022-07-30T06:29:34.192Z,16.34
2022-07-30T06:32:01.479Z,16.51
2022-07-30T06:34:28.558Z,16.54
2022-07-30T06:36:59.515Z,16.56
2022-07-30T06:39:58.105Z,16.65
2022-07-30T06:42:13.937Z,16.64
2022-07-30T06:44:41.327Z,16.89
2022-07-30T06:47:09.039Z,17.06
2022-07-30T06:49:36.836Z,17.15
2022-07-30T06:52:05.857Z,17.27
2022-07-30T06:54:33.195Z,17.38
2022-07-30T06:57:00.775Z,17.33
2022-07-30T06:59:28.607Z,17.47
2022-07-30T07:02:02.279Z,17.53
2022-07-30T07:04:29.441Z,17.51
2022-07-30T07:06:57.889Z,17.50
2022-07-30T07:09:26.404Z,17.66
2022-07-30T07:11:53.585Z,17.58
2022-07-30T07:14:20.660Z,17.43
2022-07-30T07:16:49.629Z,17.23
2022-07-30T07:19:59.627Z,17.26
2022-07-30T07:22:04.499Z,17.36
2022-07-30T07:24:31.598Z,17.58
2022-07-30T07:26:59.252Z,17.65
2022-07-30T07:29:27.183Z,17.77
2022-07-30T07:32:07.381Z,17.71
2022-07-30T07:34:37.638Z,17.60
2022-07-30T07:37:07.583Z,17.55
2022-07-30T07:39:38.359Z,17.79
2022-07-30T07:42:09.035Z,18.00
2022-07-30T07:44:36.066Z,18.25
2022-07-30T07:47:04.198Z,18.17
2022-07-30T07:49:31.240Z,18.27
2022-07-30T07:51:58.359Z,18.41
2022-07-30T07:54:26.663Z,18.64
2022-07-30T07:56:57.110Z,18.77
2022-07-30T07:59:36.322Z,18.80
2022-07-30T08:02:08.543Z,18.61
2022-07-30T08:04:36.609Z,18.54
2022-07-30T08:07:04.910Z,18.70
2022-07-30T08:09:43.834Z,18.89
2022-07-30T08:12:12.952Z,18.96
2022-07-30T08:14:39.991Z,19.16
2022-07-30T08:17:08.103Z,19.18
2022-07-30T08:19:36.093Z,19.13
2022-07-30T08:22:03.182Z,19.19
2022-07-30T08:24:30.360Z,19.24
2022-07-30T08:26:57.409Z,19.08
2022-07-30T08:29:25.279Z,19.03
2022-07-30T08:31:52.437Z,19.09
2022-07-30T08:34:21.082Z,19.00
2022-07-30T08:36:52.994Z,19.13
2022-07-30T08:39:25.598Z,19.19
2022-07-30T08:41:52.907Z,19.17
2022-07-30T08:44:22.768Z,19.12
2022-07-30T08:46:52.449Z,19.24
2022-07-30T08:49:20.776Z,19.28
2022-07-30T08:51:49.746Z,19.25
2022-07-30T08:54:19.935Z,19.39
2022-07-30T08:56:49.953Z,19.37
2022-07-30T08:59:18.014Z,19.35
2022-07-30T09:01:45.213Z,19.41
2022-07-30T09:04:12.360Z,19.66
2022-07-30T09:06:40.836Z,19.61
2022-07-30T09:09:08.210Z,19.63
2022-07-30T09:11:36.635Z,19.75
2022-07-30T09:14:11.617Z,19.72
2022-07-30T09:16:41.307Z,19.95
2022-07-30T09:19:26.953Z,19.92
2022-07-30T09:21:58.762Z,20.20
2022-07-30T09:24:28.866Z,20.41
2022-07-30T09:26:59.677Z,20.47
2022-07-30T09:29:29.665Z,20.53
2022-07-30T09:32:08.049Z,20.55
2022-07-30T09:34:37.995Z,20.63
2022-07-30T09:37:18.474Z,20.42
2022-07-30T09:39:58.750Z,20.46
2022-07-30T09:42:28.839Z,20.61
2022-07-30T09:45:10.517Z,20.43
2022-07-30T09:47:45.123Z,20.50
2022-07-30T09:50:17.856Z,20.62
2022-07-30T09:53:09.730Z,20.81
2022-07-30T09:55:41.443Z,20.78
2022-07-30T09:58:13.052Z,20.79
2022-07-30T10:00:47.390Z,20.99
2022-07-30T10:03:34.490Z,21.00
2022-07-30T10:06:11.312Z,21.21
2022-07-30T10:08:46.180Z,21.27
2022-07-30T10:11:16.443Z,21.47
2022-07-30T10:13:59.293Z,21.62
2022-07-30T10:16:27.991Z,21.81
2022-07-30T10:19:00.583Z,21.71
2022-07-30T10:21:28.438Z,21.89
2022-07-30T10:23:59.645Z,21.92
2022-07-30T10:26:27.955Z,22.10
2022-07-30T10:28:57.336Z,22.29
2022-07-30T10:31:49.128Z,22.50
2022-07-30T10:34:17.073Z,22.49
2022-07-30T10:36:50.730Z,22.37
2022-07-30T10:39:24.243Z,22.40
2022-07-30T10:42:16.063Z,22.41
2022-07-30T10:45:07.737Z,22.64
2022-07-30T10:47:48.584Z,22.73
2022-07-30T10:50:22.368Z,22.66
2022-07-30T10:52:53.930Z,22.53
2022-07-30T10:55:37.203Z,22.79
2022-07-30T10:58:08.961Z,22.79
2022-07-30T11:00:51.742Z,22.85
2022-07-30T11:03:39.905Z,22.84
2022-07-30T11:06:17.028Z,22.48
2022-07-30T11:08:57.413Z,22.50
2022-07-30T11:11:59.479Z,22.79
2022-07-30T11:16:42.288Z,23.12
2022-07-30T11:19:53.251Z,23.23
2022-07-30T11:22:28.840Z,23.41
2022-07-30T11:24:57.898Z,23.53
2022-07-30T11:27:41.281Z,23.46
2022-07-30T11:30:18.072Z,23.38
2022-07-30T11:32:51.793Z,23.29
2022-07-30T11:35:25.491Z,23.49
2022-07-30T11:38:00.903Z,23.57
2022-07-30T11:40:52.289Z,23.82
2022-07-30T11:43:36.007Z,23.85
2022-07-30T11:46:28.860Z,23.86
2022-07-30T11:49:09.310Z,23.42
2022-07-30T11:51:45.409Z,23.43
2022-07-30T11:54:13.103Z,23.23
2022-07-30T11:57:03.669Z,23.37
2022-07-30T11:59:31.688Z,23.53
2022-07-30T12:02:01.732Z,23.95
2022-07-30T12:04:29.745Z,24.01
2022-07-30T12:06:57.756Z,24.48
2022-07-30T12:09:29.961Z,25.03
2022-07-30T12:12:02.456Z,25.85
2022-07-30T12:14:42.085Z,25.78
2022-07-30T12:17:14.904Z,25.87
2022-07-30T12:19:48.047Z,26.07
2022-07-30T12:22:15.702Z,25.84
2022-07-30T12:24:42.822Z,25.76
2022-07-30T12:27:10.145Z,25.67
2022-07-30T12:29:37.656Z,25.71
2022-07-30T12:32:08.189Z,25.39
2022-07-30T12:34:35.938Z,25.80
2022-07-30T12:37:10.174Z,26.32
2022-07-30T12:39:37.531Z,26.52
2022-07-30T12:42:05.956Z,25.98
2022-07-30T12:44:44.525Z,25.68
2022-07-30T12:47:24.161Z,25.94
2022-07-30T12:49:53.606Z,25.67
2022-07-30T12:52:31.975Z,25.84
2022-07-30T12:55:04.777Z,25.70
2022-07-30T12:57:57.343Z,25.29
2022-07-30T13:00:28.511Z,25.08
2022-07-30T13:02:58.954Z,24.70
2022-07-30T13:05:50.607Z,24.53
2022-07-30T13:08:17.792Z,24.84
2022-07-30T13:10:59.964Z,24.83
2022-07-30T13:13:28.342Z,25.59
2022-07-30T13:16:04.610Z,25.90
2022-07-30T13:18:32.897Z,25.99
2022-07-30T13:21:00.808Z,25.92
2022-07-30T13:23:28.340Z,26.08
2022-07-30T13:25:57.530Z,26.37
2022-07-30T13:28:25.745Z,26.25
2022-07-30T13:30:52.833Z,26.93
2022-07-30T13:33:20.876Z,26.46
2022-07-30T13:35:48.111Z,26.69
2022-07-30T13:38:15.635Z,27.68
2022-07-30T13:40:42.781Z,27.49
2022-07-30T13:43:10.044Z,27.77
2022-07-30T13:45:37.263Z,27.33
2022-07-30T13:48:06.890Z,26.63
2022-07-30T13:50:36.370Z,26.56
2022-07-30T13:53:07.141Z,26.86
2022-07-30T13:55:36.724Z,27.87
2022-07-30T13:58:06.728Z,27.29
2022-07-30T14:00:36.565Z,27.06
2022-07-30T14:03:08.988Z,27.26
2022-07-30T14:05:42.154Z,26.82
2022-07-30T14:08:11.100Z,25.81
2022-07-30T14:10:39.881Z,25.49
2022-07-30T14:13:08.258Z,24.99
2022-07-30T14:15:39.588Z,25.02
2022-07-30T14:18:07.944Z,24.87
2022-07-30T14:20:36.443Z,24.43
2022-07-30T14:23:03.583Z,24.13
2022-07-30T14:25:30.953Z,23.94
2022-07-30T14:27:58.071Z,23.92
2022-07-30T14:30:25.679Z,24.03
2022-07-30T14:32:59.198Z,23.95
2022-07-30T14:35:27.719Z,24.00
2022-07-30T14:37:56.123Z,23.99
2022-07-30T14:40:23.687Z,23.92
2022-07-30T14:42:51.024Z,23.98
2022-07-30T14:45:18.126Z,24.11
2022-07-30T14:47:45.175Z,24.14
2022-07-30T14:50:12.289Z,24.36
2022-07-30T14:52:39.396Z,24.26
2022-07-30T14:55:08.004Z,24.08
2022-07-30T14:57:37.820Z,24.00
2022-07-30T15:00:08.464Z,24.05
2022-07-30T15:02:37.982Z,24.05
2022-07-30T15:05:06.510Z,23.99
2022-07-30T15:07:34.632Z,24.06
2022-07-30T15:10:02.506Z,24.01
2022-07-30T15:12:30.048Z,24.20
2022-07-30T15:14:57.322Z,24.25
2022-07-30T15:17:26.734Z,24.41
2022-07-30T15:19:53.831Z,24.59
2022-07-30T15:22:21.535Z,24.55
2022-07-30T15:24:49.318Z,24.47
2022-07-30T15:27:16.933Z,24.68
2022-07-30T15:29:44.483Z,24.78
2022-07-30T15:32:11.637Z,24.52
2022-07-30T15:34:38.727Z,24.97
2022-07-30T15:37:06.476Z,25.36
2022-07-30T15:39:34.930Z,25.63
2022-07-30T15:42:03.278Z,25.60
2022-07-30T15:44:30.563Z,25.55
2022-07-30T15:46:58.257Z,26.05
2022-07-30T15:49:27.085Z,26.23
2022-07-30T15:52:01.795Z,26.48
2022-07-30T15:54:29.424Z,26.53
2022-07-30T15:57:01.016Z,26.43
2022-07-30T15:59:29.352Z,26.08
2022-07-30T16:01:58.023Z,26.24
2022-07-30T16:04:31.366Z,26.21
2022-07-30T16:07:03.296Z,26.46
2022-07-30T16:09:30.719Z,27.16
2022-07-30T16:11:58.382Z,27.73
2022-07-30T16:14:27.302Z,27.37
2022-07-30T16:16:58.933Z,26.62
2022-07-30T16:19:29.279Z,26.38
2022-07-30T16:21:57.366Z,25.97
2022-07-30T16:24:24.424Z,25.51
2022-07-30T16:26:51.606Z,25.07
2022-07-30T16:29:18.882Z,24.81
2022-07-30T16:31:49.322Z,24.51
2022-07-30T16:34:17.790Z,24.93
2022-07-30T16:36:53.925Z,24.83
2022-07-30T16:39:24.312Z,24.78
2022-07-30T16:41:51.442Z,24.78
2022-07-30T16:44:18.539Z,24.47
2022-07-30T16:46:45.599Z,24.56
2022-07-30T16:49:12.709Z,24.42
2022-07-30T16:51:41.034Z,24.40
2022-07-30T16:54:08.095Z,24.41
2022-07-30T16:56:37.955Z,24.25
2022-07-30T16:59:13.249Z,23.92
2022-07-30T17:01:40.938Z,23.76
2022-07-30T17:04:07.992Z,23.89
2022-07-30T17:06:39.964Z,23.79
2022-07-30T17:09:07.377Z,23.80
2022-07-30T17:11:47.106Z,23.64
2022-07-30T17:14:22.405Z,23.61
2022-07-30T17:16:50.933Z,23.53
2022-07-30T17:19:18.193Z,23.38
2022-07-30T17:21:45.357Z,23.31
2022-07-30T17:24:13.609Z,23.28
2022-07-30T17:26:43.632Z,23.21
2022-07-30T17:29:14.718Z,23.26
2022-07-30T17:31:44.191Z,23.24
2022-07-30T17:34:13.930Z,23.23
2022-07-30T17:36:51.445Z,23.18
2022-07-30T17:40:28.542Z,23.27
2022-07-30T17:42:10.918Z,23.13
2022-07-30T17:44:42.481Z,23.13
2022-07-30T17:47:15.084Z,23.11
2022-07-30T17:49:43.941Z,23.07
2022-07-30T17:52:11.233Z,23.03
2022-07-30T17:54:38.267Z,23.07
2022-07-30T17:57:08.820Z,23.04
2022-07-30T17:59:35.988Z,23.03
2022-07-30T18:02:05.345Z,22.97
2022-07-30T18:04:33.312Z,22.91
2022-07-30T18:07:00.854Z,22.82
2022-07-30T18:09:27.943Z,22.76
2022-07-30T18:11:57.211Z,22.71
2022-07-30T18:14:27.329Z,22.69
2022-07-30T18:16:56.168Z,22.63
2022-07-30T18:19:27.392Z,22.57
2022-07-30T18:21:56.948Z,22.49
2022-07-30T18:24:25.761Z,22.50
2022-07-30T18:26:53.329Z,22.54
2022-07-30T18:29:27.122Z,22.56
2022-07-30T18:31:56.957Z,22.52
2022-07-30T18:34:24.139Z,22.52
2022-07-30T18:36:53.086Z,22.51
2022-07-30T18:39:21.175Z,22.52
2022-07-30T18:41:48.226Z,22.51
2022-07-30T18:44:15.336Z,22.55
2022-07-30T18:46:42.419Z,22.58
2022-07-30T18:49:33.848Z,22.57
2022-07-30T18:51:59.174Z,22.59
2022-07-30T18:54:30.061Z,22.58
2022-07-30T18:57:00.512Z,22.57
2022-07-30T18:59:27.621Z,22.53
2022-07-30T19:01:57.551Z,22.45
2022-07-30T19:04:24.890Z,22.37
2022-07-30T19:06:52.561Z,22.28
2022-07-30T19:09:20.052Z,22.20
2022-07-30T19:11:47.099Z,22.13
2022-07-30T19:14:14.720Z,22.08
2022-07-30T19:16:43.559Z,22.05
2022-07-30T19:19:14.965Z,22.00
2022-07-30T19:21:42.599Z,21.95
2022-07-30T19:24:10.244Z,21.86
2022-07-30T19:26:39.646Z,21.85
2022-07-30T19:29:10.397Z,21.76
2022-07-30T19:31:37.936Z,21.79
2022-07-30T19:34:10.961Z,21.77
2022-07-30T19:36:41.333Z,21.74
2022-07-30T19:39:13.260Z,21.71
2022-07-30T19:41:50.962Z,21.68
2022-07-30T19:44:18.814Z,21.65
2022-07-30T19:46:46.827Z,21.63
2022-07-30T19:49:17.310Z,21.58
2022-07-30T19:52:10.445Z,21.57
2022-07-30T19:54:34.871Z,21.55
2022-07-30T19:57:05.013Z,21.54
2022-07-30T19:59:45.392Z,21.50
2022-07-30T20:02:23.877Z,21.48
2022-07-30T20:04:51.167Z,21.43
2022-07-30T20:07:19.097Z,21.40
2022-07-30T20:09:48.620Z,21.37
2022-07-30T20:12:17.057Z,21.33
2022-07-30T20:14:44.622Z,21.28
2022-07-30T20:17:11.773Z,21.27
2022-07-30T20:19:39.273Z,21.26
2022-07-30T20:22:17.087Z,21.23
2022-07-30T20:24:45.111Z,21.21
2022-07-30T20:27:36.582Z,21.19
2022-07-30T20:29:59.375Z,21.14
2022-07-30T20:32:27.436Z,21.12
2022-07-30T20:34:58.406Z,21.11
2022-07-30T20:37:27.386Z,21.08
2022-07-30T20:39:57.095Z,21.04
2022-07-30T20:42:24.707Z,21.01
2022-07-30T20:44:57.186Z,20.99
2022-07-30T20:47:34.479Z,20.92
2022-07-30T20:50:10.020Z,20.93
2022-07-30T20:52:40.077Z,20.93
2022-07-30T20:55:09.387Z,20.91
2022-07-30T20:57:56.834Z,20.85
2022-07-30T21:00:26.068Z,20.83
2022-07-30T21:02:53.194Z,20.84
2022-07-30T21:05:21.535Z,20.80
2022-07-30T21:07:52.861Z,20.78
2022-07-30T21:10:23.373Z,20.75
2022-07-30T21:12:55.799Z,20.71
2022-07-30T21:15:26.335Z,20.70
2022-07-30T21:17:53.686Z,20.62
2022-07-30T21:20:27.819Z,20.65
2022-07-30T21:23:10.294Z,20.63
2022-07-30T21:26:01.073Z,20.61
2022-07-30T21:28:28.173Z,20.55
2022-07-30T21:30:57.658Z,20.56
2022-07-30T21:33:26.993Z,20.51
2022-07-30T21:36:02.083Z,20.51
2022-07-30T21:38:30.577Z,20.52
2022-07-30T21:40:58.641Z,20.49
2022-07-30T21:43:29.823Z,20.47
2022-07-30T21:45:58.436Z,20.44
2022-07-30T21:48:27.126Z,20.43
2022-07-30T21:50:57.327Z,20.40
2022-07-30T21:53:26.415Z,20.34
2022-07-30T21:56:12.216Z,20.32
2022-07-30T21:58:39.274Z,20.34
2022-07-30T22:01:17.277Z,20.31
2022-07-30T22:04:04.568Z,20.30
2022-07-30T22:06:37.942Z,20.29
2022-07-30T22:09:19.548Z,20.30
2022-07-30T22:12:01.411Z,20.28
2022-07-30T22:14:29.584Z,20.22
2022-07-30T22:16:57.374Z,20.24
2022-07-30T22:22:26.646Z,20.24
2022-07-30T22:24:59.879Z,20.24
2022-07-30T22:27:40.093Z,20.26
2022-07-30T22:30:15.853Z,20.22
2022-07-30T22:32:43.034Z,20.21
2022-07-30T22:35:11.213Z,20.17
2022-07-30T22:37:38.344Z,20.14
2022-07-30T22:40:07.032Z,20.12
2022-07-30T22:42:46.626Z,20.08
2022-07-30T22:45:34.032Z,20.05
2022-07-30T22:48:10.899Z,20.05
2022-07-30T22:50:39.778Z,20.02
2022-07-30T22:54:03.269Z,20.01
2022-07-30T22:55:56.022Z,19.97
2022-07-30T22:58:26.342Z,19.96
2022-07-30T23:00:54.452Z,19.93
2022-07-30T23:03:21.877Z,19.93
2022-07-30T23:05:56.166Z,19.91
2022-07-30T23:08:29.918Z,19.89
2022-07-30T23:10:59.574Z,19.88
2022-07-30T23:12:32.383Z,20.24
2022-07-30T23:13:28.484Z,19.88
2022-07-30T23:15:57.280Z,19.83
2022-07-30T23:18:24.453Z,19.73
2022-07-30T23:20:51.490Z,19.78
2022-07-30T23:23:18.688Z,19.75
2022-07-30T23:25:45.743Z,19.73
2022-07-30T23:28:12.896Z,19.67
2022-07-30T23:30:39.947Z,19.56
2022-07-30T23:33:06.971Z,19.49
2022-07-30T23:35:34.673Z,19.44
2022-07-30T23:38:02.172Z,19.37
2022-07-30T23:40:29.198Z,19.32
2022-07-30T23:42:57.402Z,19.26
2022-07-30T23:45:24.464Z,19.19
2022-07-30T23:48:01.966Z,19.22
2022-07-30T23:50:32.191Z,19.17
2022-07-30T23:53:00.559Z,19.17
2022-07-30T23:55:28.969Z,19.18
2022-07-30T23:58:00.345Z,19.17
